createdAt,value
2022-12-13T00:01:20.915Z,100859.78
2022-12-13T00:03:48.476Z,100851.69
2022-12-13T00:06:16.027Z,100851.69
2022-12-13T00:08:43.530Z,100844.63
2022-12-13T00:11:14.351Z,100844.94
2022-12-13T00:13:42.549Z,100839.22
2022-12-13T00:16:12.639Z,100841.16
2022-12-13T00:18:40.584Z,100837.88
2022-12-13T00:21:09.804Z,100829.13
2022-12-13T00:23:37.256Z,100842.09
2022-12-13T00:26:05.240Z,100843.09
2022-12-13T00:28:34.404Z,100838.97
2022-12-13T00:31:26.938Z,100837.47
2022-12-13T00:33:50.139Z,100836.66
2022-12-13T00:36:17.738Z,100830.50
2022-12-13T00:38:45.565Z,100836.47
2022-12-13T00:41:14.814Z,100835.69
2022-12-13T00:43:44.012Z,100832.06
2022-12-13T00:46:14.889Z,100827.78
2022-12-13T00:48:42.812Z,100822.47
2022-12-13T00:51:11.568Z,100825.94
2022-12-13T00:53:39.453Z,100823.94
2022-12-13T00:56:11.402Z,100821.13
2022-12-13T00:58:38.923Z,100820.97
2022-12-13T01:01:09.607Z,100820.63
2022-12-13T01:03:37.837Z,100817.19
2022-12-13T01:06:15.378Z,100817.00
2022-12-13T01:08:43.809Z,100817.69
2022-12-13T01:11:12.523Z,100821.59
2022-12-13T01:13:40.627Z,100813.72
2022-12-13T01:16:13.770Z,100812.44
2022-12-13T01:18:42.269Z,100813.50
2022-12-13T01:21:13.184Z,100817.34
2022-12-13T01:23:41.284Z,100822.75
2022-12-13T01:26:10.485Z,100819.13
2022-12-13T01:28:38.061Z,100810.72
2022-12-13T01:31:08.045Z,100809.75
2022-12-13T01:33:37.477Z,100814.66
2022-12-13T01:36:07.650Z,100814.19
2022-12-13T01:38:37.972Z,100810.88
2022-12-13T01:41:17.007Z,100821.56
2022-12-13T01:43:55.465Z,100815.34
2022-12-13T01:46:23.022Z,100812.31
2022-12-13T01:48:56.446Z,100803.56
2022-12-13T01:51:28.218Z,100804.41
2022-12-13T01:53:56.638Z,100803.56
2022-12-13T01:56:27.698Z,100814.41
2022-12-13T01:58:56.753Z,100801.41
2022-12-13T02:01:24.272Z,100793.16
2022-12-13T02:03:53.114Z,100799.72
2022-12-13T02:06:24.335Z,100799.09
2022-12-13T02:08:51.840Z,100799.06
2022-12-13T02:11:19.371Z,100790.22
2022-12-13T02:13:46.825Z,100799.78
2022-12-13T02:16:23.035Z,100793.47
2022-12-13T02:19:20.523Z,100795.59
2022-12-13T02:21:56.455Z,100798.06
2022-12-13T02:24:47.513Z,100793.47
2022-12-13T02:27:30.702Z,100792.19
2022-12-13T02:30:22.531Z,100790.69
2022-12-13T02:33:13.543Z,100785.72
2022-12-13T02:35:55.329Z,100776.56
2022-12-13T02:38:28.647Z,100773.56
2022-12-13T02:41:00.763Z,100765.47
2022-12-13T02:43:33.501Z,100768.44
2022-12-13T02:46:03.638Z,100770.38
2022-12-13T02:48:33.222Z,100768.28
2022-12-13T02:51:01.362Z,100771.56
2022-12-13T02:53:29.511Z,100767.16
2022-12-13T02:56:01.266Z,100770.91
2022-12-13T02:58:30.872Z,100773.53
2022-12-13T03:01:27.781Z,100766.41
2022-12-13T03:04:03.119Z,100768.88
2022-12-13T03:06:37.123Z,100762.13
2022-12-13T03:09:25.367Z,100766.09
2022-12-13T03:12:29.639Z,100773.19
2022-12-13T03:15:00.196Z,100782.38
2022-12-13T03:17:32.730Z,100773.94
2022-12-13T03:20:00.347Z,100778.44
2022-12-13T03:22:29.871Z,100782.44
2022-12-13T03:24:57.344Z,100779.38
2022-12-13T03:27:24.835Z,100778.81
2022-12-13T03:29:52.307Z,100771.91
2022-12-13T03:32:19.944Z,100764.19
2022-12-13T03:35:00.501Z,100762.25
2022-12-13T03:37:28.587Z,100766.81
2022-12-13T03:39:56.046Z,100773.56
2022-12-13T03:42:23.563Z,100770.78
2022-12-13T03:44:51.023Z,100765.09
2022-12-13T03:47:18.799Z,100753.38
2022-12-13T03:49:46.271Z,100764.88
2022-12-13T03:52:23.171Z,100755.84
2022-12-13T03:54:50.855Z,100756.63
2022-12-13T03:57:18.315Z,100758.41
2022-12-13T03:59:45.768Z,100756.78
2022-12-13T04:02:13.270Z,100760.06
2022-12-13T04:04:40.731Z,100751.53
2022-12-13T04:07:22.581Z,100743.47
2022-12-13T04:09:51.587Z,100741.84
2022-12-13T04:12:36.592Z,100740.16
2022-12-13T04:15:04.288Z,100739.50
2022-12-13T04:17:32.038Z,100743.78
2022-12-13T04:19:59.635Z,100746.03
2022-12-13T04:22:27.108Z,100751.78
2022-12-13T04:24:55.914Z,100737.06
2022-12-13T04:27:23.403Z,100745.31
2022-12-13T04:29:50.844Z,100745.25
2022-12-13T04:32:26.521Z,100743.59
2022-12-13T04:35:01.326Z,100735.88
2022-12-13T04:37:29.312Z,100752.41
2022-12-13T04:40:00.425Z,100749.47
2022-12-13T04:42:28.511Z,100749.00
2022-12-13T04:44:55.971Z,100752.78
2022-12-13T04:47:23.479Z,100755.56
2022-12-13T04:49:51.045Z,100749.34
2022-12-13T04:52:22.463Z,100759.53
2022-12-13T04:54:55.665Z,100757.22
2022-12-13T04:57:25.133Z,100758.03
2022-12-13T04:59:52.783Z,100761.34
2022-12-13T05:02:23.815Z,100752.41
2022-12-13T05:04:54.366Z,100765.47
2022-12-13T05:07:22.639Z,100767.09
2022-12-13T05:09:50.171Z,100765.09
2022-12-13T05:12:22.461Z,100756.00
2022-12-13T05:14:51.869Z,100752.84
2022-12-13T05:17:19.360Z,100753.97
2022-12-13T05:19:46.826Z,100743.72
2022-12-13T05:22:19.876Z,100739.19
2022-12-13T05:24:48.553Z,100742.88
2022-12-13T05:27:24.682Z,100747.69
2022-12-13T05:30:03.429Z,100738.31
2022-12-13T05:32:33.878Z,100729.00
2022-12-13T05:35:12.170Z,100735.63
2022-12-13T05:37:39.790Z,100736.75
2022-12-13T05:40:09.708Z,100738.38
2022-12-13T05:42:37.912Z,100736.75
2022-12-13T05:45:08.611Z,100741.72
2022-12-13T05:47:36.163Z,100743.13
2022-12-13T05:50:03.830Z,100750.78
2022-12-13T05:52:31.425Z,100742.00
2022-12-13T05:55:01.244Z,100744.16
2022-12-13T05:57:29.382Z,100748.00
2022-12-13T05:59:56.959Z,100742.13
2022-12-13T06:02:26.160Z,100742.13
2022-12-13T06:04:53.687Z,100733.75
2022-12-13T06:07:21.164Z,100742.38
2022-12-13T06:09:48.607Z,100740.41
2022-12-13T06:12:31.920Z,100741.59
2022-12-13T06:15:01.422Z,100749.25
2022-12-13T06:17:32.596Z,100748.00
2022-12-13T06:20:00.071Z,100739.38
2022-12-13T06:22:27.687Z,100748.16
2022-12-13T06:24:55.270Z,100740.41
2022-12-13T06:27:22.818Z,100739.22
2022-12-13T06:29:50.270Z,100746.50
2022-12-13T06:32:17.715Z,100756.78
2022-12-13T06:34:46.524Z,100750.53
2022-12-13T06:37:15.080Z,100752.22
2022-12-13T06:39:42.701Z,100746.63
2022-12-13T06:42:22.397Z,100746.97
2022-12-13T06:44:51.730Z,100748.47
2022-12-13T06:47:31.519Z,100747.91
2022-12-13T06:50:05.373Z,100754.50
2022-12-13T06:52:33.436Z,100754.50
2022-12-13T06:55:00.891Z,100749.41
2022-12-13T06:57:28.352Z,100748.38
2022-12-13T06:59:55.821Z,100757.59
2022-12-13T07:02:25.458Z,100757.97
2022-12-13T07:04:54.504Z,100754.00
2022-12-13T07:07:24.479Z,100766.38
2022-12-13T07:09:51.991Z,100753.13
2022-12-13T07:12:20.771Z,100755.72
2022-12-13T07:14:48.671Z,100759.63
2022-12-13T07:17:32.682Z,100759.91
2022-12-13T07:20:02.803Z,100769.97
2022-12-13T07:22:34.716Z,100776.03
2022-12-13T07:25:03.313Z,100775.53
2022-12-13T07:27:30.782Z,100771.78
2022-12-13T07:29:58.827Z,100775.41
2022-12-13T07:32:26.405Z,100771.34
2022-12-13T07:34:53.996Z,100770.50
2022-12-13T07:37:29.826Z,100771.53
2022-12-13T07:40:03.777Z,100772.84
2022-12-13T07:42:32.144Z,100770.50
2022-12-13T07:44:59.593Z,100774.41
2022-12-13T07:47:30.086Z,100779.97
2022-12-13T07:49:57.662Z,100774.72
2022-12-13T07:52:25.753Z,100769.91
2022-12-13T07:54:53.314Z,100776.00
2022-12-13T07:57:22.431Z,100778.22
2022-12-13T07:59:49.859Z,100783.63
2022-12-13T08:02:17.377Z,100784.38
2022-12-13T08:04:45.906Z,100791.00
2022-12-13T08:07:22.603Z,100787.00
2022-12-13T08:09:52.987Z,100784.09
2022-12-13T08:12:23.079Z,100791.81
2022-12-13T08:14:53.507Z,100795.94
2022-12-13T08:17:21.284Z,100800.22
2022-12-13T08:19:48.835Z,100791.41
2022-12-13T08:22:16.294Z,100789.78
2022-12-13T08:24:51.783Z,100789.53
2022-12-13T08:27:19.261Z,100787.09
2022-12-13T08:29:48.068Z,100786.56
2022-12-13T08:32:15.504Z,100782.88
2022-12-13T08:34:43.047Z,100782.88
2022-12-13T08:37:10.494Z,100780.19
2022-12-13T08:39:39.014Z,100782.81
2022-12-13T08:42:15.965Z,100784.44
2022-12-13T08:44:47.721Z,100780.00
2022-12-13T08:47:23.606Z,100785.78
2022-12-13T08:49:54.183Z,100780.97
2022-12-13T08:52:22.567Z,100778.81
2022-12-13T08:54:50.354Z,100776.34
2022-12-13T08:57:18.060Z,100776.72
2022-12-13T08:59:45.549Z,100780.94
2022-12-13T09:02:14.879Z,100783.75
2022-12-13T09:04:42.525Z,100788.34
2022-12-13T09:07:09.976Z,100786.22
2022-12-13T09:09:37.663Z,100779.94
2022-12-13T09:12:10.415Z,100784.31
2022-12-13T09:14:45.764Z,100783.34
2022-12-13T09:17:24.008Z,100785.19
2022-12-13T09:19:58.235Z,100784.38
2022-12-13T09:22:33.156Z,100780.09
2022-12-13T09:25:02.524Z,100787.06
2022-12-13T09:27:31.236Z,100782.72
2022-12-13T09:30:08.920Z,100792.00
2022-12-13T09:32:38.004Z,100792.34
2022-12-13T09:35:06.168Z,100782.75
2022-12-13T09:37:34.370Z,100776.00
2022-12-13T09:40:16.068Z,100775.84
2022-12-13T09:43:04.567Z,100774.44
2022-12-13T09:45:42.872Z,100767.34
2022-12-13T09:48:22.936Z,100764.19
2022-12-13T09:50:58.433Z,100766.38
2022-12-13T09:53:39.122Z,100766.28
2022-12-13T09:56:10.632Z,100765.31
2022-12-13T09:58:38.867Z,100770.50
2022-12-13T10:01:06.549Z,100766.94
2022-12-13T10:03:35.640Z,100762.03
2022-12-13T10:06:13.495Z,100757.75
2022-12-13T10:08:42.854Z,100751.38
2022-12-13T10:11:13.639Z,100758.13
2022-12-13T10:13:42.703Z,100750.88
2022-12-13T10:16:15.182Z,100756.19
2022-12-13T10:18:52.798Z,100756.38
2022-12-13T10:21:25.791Z,100747.16
2022-12-13T10:24:23.119Z,100755.09
2022-12-13T10:26:40.752Z,100753.28
2022-12-13T10:29:08.486Z,100747.19
2022-12-13T10:31:40.781Z,100742.75
2022-12-13T10:34:18.162Z,100746.59
2022-12-13T10:36:45.622Z,100747.44
2022-12-13T10:39:18.009Z,100753.84
2022-12-13T10:41:47.392Z,100741.38
2022-12-13T10:44:21.358Z,100747.09
2022-12-13T10:46:50.858Z,100742.19
2022-12-13T10:49:22.579Z,100740.72
2022-12-13T10:51:51.791Z,100733.66
2022-12-13T10:54:26.830Z,100727.56
2022-12-13T10:56:59.879Z,100736.31
2022-12-13T10:59:31.977Z,100726.28
2022-12-13T11:01:59.994Z,100727.56
2022-12-13T11:04:31.399Z,100722.16
2022-12-13T11:07:00.331Z,100730.59
2022-12-13T11:09:38.386Z,100721.34
2022-12-13T11:12:13.037Z,100732.75
2022-12-13T11:14:50.287Z,100729.63
2022-12-13T11:17:20.574Z,100725.16
2022-12-13T11:19:50.876Z,100725.00
2022-12-13T11:22:21.315Z,100721.72
2022-12-13T11:24:52.369Z,100727.81
2022-12-13T11:27:32.374Z,100720.06
2022-12-13T11:30:09.935Z,100714.16
2022-12-13T11:32:59.752Z,100711.38
2022-12-13T11:35:33.054Z,100710.22
2022-12-13T11:38:06.416Z,100713.81
2022-12-13T11:40:38.713Z,100710.41
2022-12-13T11:43:14.345Z,100712.69
2022-12-13T11:45:46.536Z,100710.25
2022-12-13T11:48:18.974Z,100704.31
2022-12-13T11:50:50.006Z,100692.31
2022-12-13T11:53:23.035Z,100691.44
2022-12-13T11:55:55.543Z,100686.53
2022-12-13T11:59:00.651Z,100691.13
2022-12-13T12:01:16.619Z,100690.63
2022-12-13T12:03:48.230Z,100686.53
2022-12-13T12:06:22.077Z,100678.31
2022-12-13T12:08:54.882Z,100679.59
2022-12-13T12:11:29.175Z,100676.97
2022-12-13T12:14:02.154Z,100682.72
2022-12-13T12:16:34.097Z,100668.06
2022-12-13T12:19:02.145Z,100668.91
2022-12-13T12:22:12.011Z,100673.31
2022-12-13T12:24:30.174Z,100666.59
2022-12-13T12:27:07.395Z,100677.47
2022-12-13T12:29:54.972Z,100676.66
2022-12-13T12:32:33.514Z,100672.53
2022-12-13T12:35:12.871Z,100674.34
2022-12-13T12:37:50.025Z,100676.63
2022-12-13T12:41:07.101Z,100669.22
2022-12-13T12:43:30.299Z,100675.81
2022-12-13T12:46:07.367Z,100677.94
2022-12-13T12:49:01.090Z,100677.78
2022-12-13T12:51:34.255Z,100681.41
2022-12-13T12:54:13.859Z,100674.81
2022-12-13T12:56:46.987Z,100678.94
2022-12-13T12:59:20.637Z,100672.66
2022-12-13T13:01:54.817Z,100663.78
2022-12-13T13:04:28.060Z,100661.47
2022-12-13T13:07:01.919Z,100667.41
2022-12-13T13:09:31.149Z,100661.31
2022-12-13T13:11:59.423Z,100656.84
2022-12-13T13:14:30.283Z,100651.09
2022-12-13T13:16:58.388Z,100654.91
2022-12-13T13:19:43.603Z,100647.47
2022-12-13T13:22:30.864Z,100650.59
2022-12-13T13:25:14.212Z,100649.09
2022-12-13T13:27:43.006Z,100633.97
2022-12-13T13:30:17.907Z,100641.38
2022-12-13T13:32:45.413Z,100628.34
2022-12-13T13:35:53.509Z,100627.50
2022-12-13T13:38:29.263Z,100623.56
2022-12-13T13:40:58.067Z,100625.53
2022-12-13T13:43:32.436Z,100627.84
2022-12-13T13:46:01.634Z,100621.88
2022-12-13T13:48:43.906Z,100625.19
2022-12-13T13:52:23.975Z,100625.69
2022-12-13T13:54:58.531Z,100632.13
2022-12-13T13:58:11.364Z,100634.75
2022-12-13T14:00:50.939Z,100639.03
2022-12-13T14:03:50.117Z,100632.44
2022-12-13T14:06:53.817Z,100627.00
2022-12-13T14:09:52.481Z,100626.69
2022-12-13T14:13:04.873Z,100624.53
2022-12-13T14:16:12.218Z,100633.44
2022-12-13T14:19:11.866Z,100631.13
2022-12-13T14:21:57.742Z,100618.16
2022-12-13T14:24:31.411Z,100618.78
2022-12-13T14:27:16.728Z,100624.91
2022-12-13T14:29:48.802Z,100618.16
2022-12-13T14:32:27.773Z,100613.69
2022-12-13T14:34:57.317Z,100609.72
2022-12-13T14:37:28.513Z,100621.28
2022-12-13T14:39:56.664Z,100618.47
2022-12-13T14:42:26.324Z,100625.88
2022-12-13T14:44:54.304Z,100626.22
2022-12-13T14:47:23.018Z,100624.91
2022-12-13T14:49:55.991Z,100615.69
2022-12-13T14:52:25.980Z,100615.50
2022-12-13T14:54:58.223Z,100623.59
2022-12-13T14:57:29.213Z,100620.94
2022-12-13T14:59:58.657Z,100614.88
2022-12-13T15:02:30.043Z,100627.22
2022-12-13T15:05:01.440Z,100619.63
2022-12-13T15:07:30.359Z,100618.94
2022-12-13T15:09:59.761Z,100614.53
2022-12-13T15:12:28.209Z,100609.72
2022-12-13T15:14:59.497Z,100619.31
2022-12-13T15:17:29.882Z,100614.38
2022-12-13T15:19:57.407Z,100609.78
2022-12-13T15:22:29.940Z,100614.06
2022-12-13T15:24:58.130Z,100603.50
2022-12-13T15:27:26.219Z,100610.25
2022-12-13T15:29:56.018Z,100613.09
2022-12-13T15:32:23.951Z,100609.28
2022-12-13T15:34:52.299Z,100608.78
2022-12-13T15:37:29.317Z,100608.78
2022-12-13T15:40:01.382Z,100594.97
2022-12-13T15:42:32.343Z,100597.91
2022-12-13T15:45:01.536Z,100600.75
2022-12-13T15:47:29.485Z,100606.19
2022-12-13T15:49:59.462Z,100604.03
2022-12-13T15:52:32.076Z,100604.84
2022-12-13T15:55:02.836Z,100601.22
2022-12-13T15:57:32.649Z,100606.19
2022-12-13T16:00:20.472Z,100596.16
2022-12-13T16:03:08.972Z,100598.13
2022-12-13T16:05:39.211Z,100602.75
2022-12-13T16:08:13.779Z,100607.34
2022-12-13T16:10:48.472Z,100608.00
2022-12-13T16:13:26.389Z,100599.28
2022-12-13T16:16:00.392Z,100594.84
2022-12-13T16:18:44.754Z,100603.22
2022-12-13T16:21:12.355Z,100596.97
2022-12-13T16:23:39.843Z,100592.69
2022-12-13T16:26:11.465Z,100599.47
2022-12-13T16:28:38.915Z,100597.81
2022-12-13T16:31:14.136Z,100597.81
2022-12-13T16:33:42.839Z,100591.91
2022-12-13T16:36:10.631Z,100590.06
2022-12-13T16:38:38.156Z,100589.91
2022-12-13T16:41:08.938Z,100592.22
2022-12-13T16:43:41.707Z,100581.19
2022-12-13T16:47:13.384Z,100572.97
2022-12-13T16:49:00.235Z,100573.13
2022-12-13T16:51:27.702Z,100571.97
2022-12-13T16:53:55.148Z,100581.03
2022-12-13T16:56:22.662Z,100585.28
2022-12-13T16:58:51.466Z,100586.59
2022-12-13T17:01:20.684Z,100586.41
2022-12-13T17:03:48.739Z,100588.72
2022-12-13T17:06:23.930Z,100586.06
2022-12-13T17:08:51.737Z,100595.59
2022-12-13T17:11:19.366Z,100588.84
2022-12-13T17:13:48.198Z,100595.91
2022-12-13T17:16:17.125Z,100586.94
2022-12-13T17:18:44.745Z,100581.66
2022-12-13T17:21:12.539Z,100585.78
2022-12-13T17:23:41.170Z,100584.47
2022-12-13T17:26:10.830Z,100584.94
2022-12-13T17:28:38.694Z,100575.69
2022-12-13T17:31:08.787Z,100586.75
2022-12-13T17:33:37.933Z,100576.84
2022-12-13T17:36:06.685Z,100582.09
2022-12-13T17:38:34.533Z,100588.53
2022-12-13T17:41:02.150Z,100579.31
2022-12-13T17:43:34.807Z,100592.16
2022-12-13T17:46:03.962Z,100583.78
2022-12-13T17:48:39.693Z,100576.03
2022-12-13T17:51:10.067Z,100576.03
2022-12-13T17:53:39.622Z,100581.00
2022-12-13T17:56:11.838Z,100572.81
2022-12-13T17:58:39.937Z,100566.22
2022-12-13T18:01:12.350Z,100569.66
2022-12-13T18:03:39.915Z,100561.94
2022-12-13T18:06:09.121Z,100561.09
2022-12-13T18:08:37.339Z,100564.06
2022-12-13T18:13:54.495Z,100547.28
2022-12-13T18:16:23.923Z,100561.78
2022-12-13T18:18:54.873Z,100554.06
2022-12-13T18:21:26.318Z,100541.53
2022-12-13T18:23:55.574Z,100540.56
2022-12-13T18:26:24.569Z,100539.75
2022-12-13T18:28:52.444Z,100537.25
2022-12-13T18:31:22.250Z,100533.16
2022-12-13T18:33:51.102Z,100524.91
2022-12-13T18:36:19.381Z,100523.31
2022-12-13T18:38:48.215Z,100520.16
2022-12-13T18:41:17.531Z,100519.34
2022-12-13T18:43:45.737Z,100517.69
2022-12-13T18:46:14.244Z,100523.13
2022-12-13T18:48:42.093Z,100529.84
2022-12-13T18:51:10.690Z,100528.56
2022-12-13T18:53:39.994Z,100528.72
2022-12-13T18:56:16.068Z,100526.59
2022-12-13T18:58:45.869Z,100524.28
2022-12-13T19:01:15.381Z,100539.06
2022-12-13T19:03:43.599Z,100538.09
2022-12-13T19:06:12.198Z,100538.91
2022-12-13T19:08:39.659Z,100547.63
2022-12-13T19:11:07.122Z,100542.38
2022-12-13T19:13:35.955Z,100534.16
2022-12-13T19:16:06.312Z,100532.84
2022-12-13T19:18:34.117Z,100537.75
2022-12-13T19:21:04.057Z,100542.72
2022-12-13T19:23:32.072Z,100549.75
2022-12-13T19:26:05.553Z,100544.19
2022-12-13T19:28:33.967Z,100537.28
2022-12-13T19:31:05.609Z,100537.44
2022-12-13T19:33:33.230Z,100535.63
2022-12-13T19:36:00.711Z,100531.84
2022-12-13T19:38:28.361Z,100533.34
2022-12-13T19:40:55.830Z,100536.28
2022-12-13T19:43:23.331Z,100520.81
2022-12-13T19:45:50.834Z,100528.41
2022-12-13T19:48:19.666Z,100529.69
2022-12-13T19:50:47.250Z,100520.13
2022-12-13T19:53:14.718Z,100524.91
2022-12-13T19:55:48.090Z,100516.38
2022-12-13T19:58:16.011Z,100519.31
2022-12-13T20:00:43.521Z,100509.16
2022-12-13T20:03:11.068Z,100507.34
2022-12-13T20:05:45.423Z,100503.03
2022-12-13T20:08:13.258Z,100501.75
2022-12-13T20:10:40.771Z,100505.19
2022-12-13T20:13:08.194Z,100502.25
2022-12-13T20:15:35.618Z,100495.84
2022-12-13T20:18:03.088Z,100499.41
2022-12-13T20:20:47.087Z,100501.56
2022-12-13T20:23:19.558Z,100494.81
2022-12-13T20:25:47.086Z,100486.75
2022-12-13T20:28:16.572Z,100488.38
2022-12-13T20:30:44.146Z,100489.38
2022-12-13T20:33:14.470Z,100484.28
2022-12-13T20:36:14.923Z,100487.53
2022-12-13T20:38:31.955Z,100482.16
2022-12-13T20:41:02.387Z,100483.16
2022-12-13T20:43:30.474Z,100482.97
2022-12-13T20:46:03.111Z,100477.84
2022-12-13T20:48:30.750Z,100480.38
2022-12-13T20:51:01.019Z,100486.59
2022-12-13T20:53:29.099Z,100489.22
2022-12-13T20:55:58.468Z,100485.97
2022-12-13T20:58:27.296Z,100493.69
2022-12-13T21:00:54.940Z,100483.00
2022-12-13T21:03:22.441Z,100484.50
2022-12-13T21:05:50.191Z,100485.66
2022-12-13T21:08:35.747Z,100472.00
2022-12-13T21:11:19.459Z,100479.06
2022-12-13T21:13:47.194Z,100474.59
2022-12-13T21:16:16.430Z,100473.47
2022-12-13T21:18:43.887Z,100475.13
2022-12-13T21:21:11.481Z,100469.84
2022-12-13T21:23:39.206Z,100465.72
2022-12-13T21:26:08.342Z,100461.13
2022-12-13T21:28:35.852Z,100461.09
2022-12-13T21:31:06.462Z,100448.78
2022-12-13T21:33:34.731Z,100445.81
2022-12-13T21:36:09.832Z,100449.78
2022-12-13T21:38:37.301Z,100437.59
2022-12-13T21:41:07.946Z,100440.41
2022-12-13T21:43:38.475Z,100439.88
2022-12-13T21:46:07.586Z,100445.34
2022-12-13T21:48:35.600Z,100440.25
2022-12-13T21:51:03.863Z,100440.72
2022-12-13T21:53:31.335Z,100432.03
2022-12-13T21:56:16.550Z,100430.56
2022-12-13T21:59:04.002Z,100433.34
2022-12-13T22:01:52.315Z,100424.47
2022-12-13T22:04:21.320Z,100426.44
2022-12-13T22:06:49.131Z,100423.00
2022-12-13T22:09:16.594Z,100424.13
2022-12-13T22:11:44.047Z,100418.56
2022-12-13T22:14:12.839Z,100424.16
2022-12-13T22:16:40.480Z,100413.63
2022-12-13T22:19:08.027Z,100402.63
2022-12-13T22:21:35.463Z,100396.69
2022-12-13T22:24:03.092Z,100389.78
2022-12-13T22:26:30.615Z,100391.78
2022-12-13T22:28:58.453Z,100389.81
2022-12-13T22:31:29.857Z,100390.78
2022-12-13T22:33:57.942Z,100387.16
2022-12-13T22:36:25.927Z,100392.44
2022-12-13T22:38:53.548Z,100389.28
2022-12-13T22:41:23.947Z,100390.75
2022-12-13T22:43:51.423Z,100392.75
2022-12-13T22:46:20.810Z,100395.22
2022-12-13T22:48:51.702Z,100388.16
2022-12-13T22:51:19.979Z,100393.94
2022-12-13T22:53:48.814Z,100385.84
2022-12-13T22:56:18.068Z,100382.56
2022-12-13T22:58:48.122Z,100389.97
2022-12-13T23:01:18.108Z,100389.63
2022-12-13T23:03:46.579Z,100385.53
2022-12-13T23:06:17.060Z,100377.81
2022-12-13T23:08:46.811Z,100378.16
2022-12-13T23:11:32.530Z,100376.00
2022-12-13T23:14:03.842Z,100375.03
2022-12-13T23:16:33.071Z,100377.81
2022-12-13T23:19:39.243Z,100371.25
2022-12-13T23:21:53.989Z,100367.31
2022-12-13T23:24:21.503Z,100371.56
2022-12-13T23:26:48.946Z,100372.38
2022-12-13T23:29:16.408Z,100368.75
2022-12-13T23:31:48.483Z,100364.16
2022-12-13T23:34:16.678Z,100365.47
2022-12-13T23:36:44.164Z,100369.75
2022-12-13T23:39:12.946Z,100363.19
2022-12-13T23:41:40.431Z,100359.75
2022-12-13T23:44:07.903Z,100356.31
2022-12-13T23:46:36.933Z,100355.78
2022-12-13T23:49:06.200Z,100350.88
2022-12-13T23:51:34.491Z,100341.34
2022-12-13T23:54:02.154Z,100341.00
2022-12-13T23:56:31.092Z,100344.00
2022-12-13T23:58:58.623Z,100334.47
